Time;durP1;ratioP1;P1;durP2;ratioP2;P2;SDS_P1;SDS_P2;PMS_P1;PMS_P2;Temp;Humidity;BMP_temperature;BMP_pressure;BME280_temperature;BME280_humidity;BME280_pressure;Samples;Min_cycle;Max_cycle;Signal;HPM_P1;HPM_P2
2024/02/02 00:00:31;;;;;;;15.00;3.75;;;;;;;13.38;43.64;102997.81;4994932;28;20024;-61
2024/02/02 00:02:57;;;;;;;8.13;2.80;;;;;;;13.40;43.88;102997.72;5011370;28;20093;-61
2024/02/02 00:05:22;;;;;;;16.00;3.85;;;;;;;13.41;43.69;102994.06;5011340;28;20060;-61
2024/02/02 00:07:48;;;;;;;17.33;3.67;;;;;;;13.40;42.87;102987.81;5012530;28;20069;-61
2024/02/02 00:10:13;;;;;;;13.35;4.07;;;;;;;13.39;42.95;102975.34;5012419;28;20029;-61
2024/02/02 00:12:39;;;;;;;11.80;3.42;;;;;;;13.39;44.06;102964.56;5011231;28;20436;-61
2024/02/02 00:15:05;;;;;;;12.75;4.28;;;;;;;13.39;43.13;102969.94;5011285;28;20566;-61
2024/02/02 00:17:31;;;;;;;13.63;3.42;;;;;;;13.43;43.65;102969.78;5012462;28;20559;-61
2024/02/02 00:19:56;;;;;;;15.10;4.15;;;;;;;13.42;44.36;102968.91;5012428;28;20018;-61
2024/02/02 00:22:22;;;;;;;20.30;5.07;;;;;;;13.43;43.77;102963.41;5011111;28;20029;-61
2024/02/02 00:24:49;;;;;;;16.48;4.20;;;;;;;13.43;42.94;102964.38;4992948;28;20655;-61
2024/02/02 00:27:15;;;;;;;15.02;3.45;;;;;;;13.45;44.15;102963.31;5012458;28;20069;-61
2024/02/02 00:29:42;;;;;;;23.80;4.95;;;;;;;13.43;43.02;102953.63;4986658;28;20026;-61
2024/02/02 00:32:07;;;;;;;16.88;4.03;;;;;;;13.43;43.52;102954.44;5020937;28;20076;-62
2024/02/02 00:34:33;;;;;;;14.38;3.17;;;;;;;13.40;43.72;102952.81;4992938;28;20026;-61
2024/02/02 00:36:58;;;;;;;6.78;4.03;;;;;;;13.38;43.47;102968.22;4985224;28;20034;-62
2024/02/02 00:39:23;;;;;;;15.20;3.65;;;;;;;13.41;44.06;102964.47;4991733;28;20120;-61
2024/02/02 00:41:49;;;;;;;10.02;4.00;;;;;;;13.41;44.23;102951.88;4995325;28;20108;-61
2024/02/02 00:44:14;;;;;;;18.40;4.18;;;;;;;13.43;43.39;102962.53;5010799;28;20033;-61
2024/02/02 00:46:40;;;;;;;12.82;3.67;;;;;;;13.41;43.33;102954.56;5010782;28;20021;-61
2024/02/02 00:49:05;;;;;;;15.73;4.15;;;;;;;13.43;44.30;102959.00;5010948;28;20448;-61
2024/02/02 00:51:30;;;;;;;18.40;4.78;;;;;;;13.37;44.70;102947.63;4991908;28;20029;-61
2024/02/02 00:53:56;;;;;;;10.32;3.67;;;;;;;13.45;43.62;102946.31;5010971;28;20022;-61
2024/02/02 00:56:23;;;;;;;15.45;3.90;;;;;;;13.46;43.66;102931.84;5010999;28;20026;-61
2024/02/02 00:58:49;;;;;;;14.65;3.42;;;;;;;13.43;44.57;102923.03;5015000;28;20042;-61
2024/02/02 01:01:14;;;;;;;22.98;4.30;;;;;;;13.42;44.08;102920.44;5015351;28;20520;-62
2024/02/02 01:03:40;;;;;;;14.73;3.30;;;;;;;13.43;44.07;102916.75;5013325;28;20030;-61
2024/02/02 01:06:06;;;;;;;19.00;3.78;;;;;;;13.41;44.13;102914.19;5012937;28;20046;-61
2024/02/02 01:08:32;;;;;;;21.95;3.72;;;;;;;13.41;43.90;102918.69;5012772;28;20037;-61
2024/02/02 01:10:57;;;;;;;12.65;3.97;;;;;;;13.39;44.68;102916.13;4996520;28;20050;-61
2024/02/02 01:13:22;;;;;;;14.38;3.38;;;;;;;13.44;44.62;102929.28;5014161;28;20030;-61
2024/02/02 01:15:48;;;;;;;17.88;4.25;;;;;;;13.41;44.10;102919.56;5013843;28;20493;-61
2024/02/02 01:18:14;;;;;;;17.48;4.25;;;;;;;13.43;44.79;102912.25;5013585;28;20391;-61
2024/02/02 01:20:40;;;;;;;9.32;3.65;;;;;;;13.47;43.95;102909.38;5014491;28;20164;-61
2024/02/02 01:23:06;;;;;;;14.13;3.97;;;;;;;13.46;43.65;102903.13;5013148;28;20519;-61
2024/02/02 01:25:32;;;;;;;14.73;3.83;;;;;;;13.49;44.30;102905.63;4998063;28;20064;-62
2024/02/02 01:27:57;;;;;;;13.35;3.05;;;;;;;13.49;43.84;102905.63;5014270;28;20481;-61
2024/02/02 01:30:23;;;;;;;14.55;3.22;;;;;;;13.50;44.82;102906.47;5014274;28;20026;-61
2024/02/02 01:32:49;;;;;;;20.48;3.97;;;;;;;13.53;44.79;102908.97;5015307;28;20156;-62
2024/02/02 01:35:16;;;;;;;10.23;3.95;;;;;;;13.54;44.48;102910.72;5014223;28;20367;-61
2024/02/02 01:37:41;;;;;;;19.98;3.88;;;;;;;13.57;44.06;102907.84;5015411;28;20052;-61
2024/02/02 01:40:09;;;;;;;23.73;3.55;;;;;;;13.55;44.95;102898.97;5014145;28;20512;-62
2024/02/02 01:42:34;;;;;;;9.48;4.07;;;;;;;13.60;44.24;102910.31;5013857;28;20026;-61
2024/02/02 01:45:00;;;;;;;24.33;4.75;;;;;;;13.60;44.16;102913.88;5014221;28;20037;-61
2024/02/02 01:47:25;;;;;;;12.52;3.75;;;;;;;13.59;43.99;102909.47;5016235;28;20040;-61
2024/02/02 01:49:51;;;;;;;12.23;3.00;;;;;;;13.59;45.03;102905.91;5016601;28;20536;-61
2024/02/02 01:52:16;;;;;;;10.52;3.08;;;;;;;13.56;44.55;102900.72;5015007;28;20152;-61
2024/02/02 01:54:41;;;;;;;14.52;4.20;;;;;;;13.56;44.20;102898.91;4997353;28;20053;-61
2024/02/02 01:57:07;;;;;;;11.70;2.72;;;;;;;13.57;44.15;102897.06;5012968;28;20398;-61
2024/02/02 01:59:32;;;;;;;14.95;3.92;;;;;;;13.58;45.21;102907.72;5013847;28;20113;-61
2024/02/02 02:01:58;;;;;;;12.38;3.60;;;;;;;13.62;44.07;102911.09;5012855;28;20042;-61
2024/02/02 02:04:23;;;;;;;13.73;3.58;;;;;;;13.59;45.33;102911.28;5014968;28;20037;-60
2024/02/02 02:06:48;;;;;;;16.35;3.33;;;;;;;13.61;45.07;102921.00;5013538;28;20161;-61
2024/02/02 02:09:14;;;;;;;19.08;4.35;;;;;;;13.62;45.02;102901.19;5012577;28;20037;-62
2024/02/02 02:11:39;;;;;;;16.50;2.65;;;;;;;13.65;45.50;102902.84;5013515;28;20394;-61
2024/02/02 02:14:05;;;;;;;11.65;3.20;;;;;;;13.68;44.16;102899.94;5013414;28;20046;-61
2024/02/02 02:16:30;;;;;;;14.07;3.03;;;;;;;13.68;45.52;102905.34;5014104;28;20408;-61
2024/02/02 02:18:56;;;;;;;13.75;3.90;;;;;;;13.68;44.42;102899.94;5012888;28;20502;-61
2024/02/02 02:21:25;;;;;;;7.65;2.80;;;;;;;13.68;45.26;102894.56;5013149;28;20038;-61
2024/02/02 02:23:51;;;;;;;10.57;3.35;;;;;;;13.69;43.82;102898.97;5013191;28;20072;-61
2024/02/02 02:26:20;;;;;;;14.68;3.00;;;;;;;13.67;45.49;102888.31;5013264;28;20509;-61
2024/02/02 02:28:47;;;;;;;8.70;2.75;;;;;;;13.66;45.09;102875.78;5013312;28;20508;-61
2024/02/02 02:31:14;;;;;;;15.27;3.20;;;;;;;13.69;44.21;102872.03;4997149;28;20034;-61
2024/02/02 02:33:40;;;;;;;14.98;4.07;;;;;;;13.68;45.25;102871.16;5013268;28;20041;-62
2024/02/02 02:36:05;;;;;;;13.23;3.10;;;;;;;13.66;44.98;102867.72;4996679;28;20034;-61
2024/02/02 02:38:31;;;;;;;10.18;3.00;;;;;;;13.68;44.98;102873.00;5012865;28;20505;-61
2024/02/02 02:40:56;;;;;;;22.52;3.53;;;;;;;13.66;45.05;102865.00;5014202;28;20497;-61
2024/02/02 02:43:22;;;;;;;10.98;2.80;;;;;;;13.70;45.14;102855.78;4996498;28;20116;-61
2024/02/02 02:45:47;;;;;;;16.42;3.25;;;;;;;13.67;45.15;102844.34;5014389;28;20036;-61
2024/02/02 02:48:12;;;;;;;14.23;3.20;;;;;;;13.66;45.14;102843.47;5013906;28;20081;-63
2024/02/02 02:50:38;;;;;;;11.55;2.92;;;;;;;13.69;44.49;102847.78;5012832;28;20037;-61
2024/02/02 02:53:04;;;;;;;24.17;4.28;;;;;;;13.69;45.20;102848.66;5012906;28;20033;-61
2024/02/02 02:55:29;;;;;;;11.05;3.08;;;;;;;13.69;44.28;102859.44;5012716;28;20029;-61
2024/02/02 02:57:55;;;;;;;12.85;3.70;;;;;;;13.72;44.49;102859.25;5012284;28;20076;-62
2024/02/02 03:00:27;;;;;;;20.77;3.65;;;;;;;13.69;44.75;102853.19;5012889;28;20026;-61
2024/02/02 03:02:52;;;;;;;15.73;3.55;;;;;;;13.70;45.22;102849.53;5012730;28;20478;-62
2024/02/02 03:05:18;;;;;;;9.93;3.33;;;;;;;13.70;44.90;102858.47;5015061;28;20068;-61
2024/02/02 03:07:44;;;;;;;13.02;3.33;;;;;;;13.66;44.52;102858.75;5013788;28;20026;-61
2024/02/02 03:10:09;;;;;;;10.23;3.72;;;;;;;13.69;44.41;102869.34;5014198;28;20038;-61
2024/02/02 03:12:36;;;;;;;12.85;2.70;;;;;;;13.70;44.14;102860.31;5013852;28;20444;-62
2024/02/02 03:15:03;;;;;;;11.85;3.67;;;;;;;13.72;43.81;102852.97;5012617;28;20579;-61
2024/02/02 03:17:28;;;;;;;21.67;3.75;;;;;;;13.70;44.14;102830.69;5013521;28;20042;-61
2024/02/02 03:19:53;;;;;;;13.90;3.65;;;;;;;13.70;43.90;102834.25;5011911;28;20405;-61
2024/02/02 03:22:19;;;;;;;12.07;2.67;;;;;;;13.68;45.13;102836.16;5012221;28;20049;-62
2024/02/02 03:24:44;;;;;;;14.93;4.03;;;;;;;13.69;44.54;102827.13;5012158;28;20515;-61
2024/02/02 03:27:10;;;;;;;11.95;3.72;;;;;;;13.70;45.26;102827.97;5012168;28;20030;-61
2024/02/02 03:29:35;;;;;;;14.60;3.28;;;;;;;13.69;45.17;102832.50;5013328;28;20026;-61
2024/02/02 03:32:00;;;;;;;12.15;4.68;;;;;;;13.69;43.99;102839.72;5013527;28;20087;-61
2024/02/02 03:34:26;;;;;;;16.40;3.55;;;;;;;13.67;45.02;102838.94;4995748;28;20493;-62
2024/02/02 03:36:51;;;;;;;15.40;3.85;;;;;;;13.66;45.22;102842.59;5005449;28;20424;-61
2024/02/02 03:39:17;;;;;;;10.55;3.70;;;;;;;13.65;44.12;102840.88;5018880;28;20042;-61
2024/02/02 03:41:42;;;;;;;19.80;3.95;;;;;;;13.68;44.29;102835.31;5013431;28;20045;-60
2024/02/02 03:44:08;;;;;;;15.55;4.15;;;;;;;13.65;44.35;102830.13;5011840;28;20041;-61
2024/02/02 03:46:35;;;;;;;17.80;4.00;;;;;;;13.66;45.19;102827.31;5013338;28;20045;-61
2024/02/02 03:49:00;;;;;;;12.77;3.72;;;;;;;13.66;44.91;102832.69;5013133;28;20038;-61
2024/02/02 03:51:25;;;;;;;17.98;4.18;;;;;;;13.64;45.00;102817.59;5013333;28;20120;-61
2024/02/02 03:53:51;;;;;;;12.88;4.07;;;;;;;13.66;44.78;102818.38;5011803;28;20037;-61
2024/02/02 03:56:16;;;;;;;20.42;4.38;;;;;;;13.66;44.93;102816.53;4995538;28;20406;-61
2024/02/02 03:58:41;;;;;;;12.18;3.72;;;;;;;13.63;45.22;102816.75;5013127;28;20413;-61
2024/02/02 04:01:07;;;;;;;13.00;5.05;;;;;;;13.64;45.25;102810.41;5013057;28;20042;-61
2024/02/02 04:03:32;;;;;;;21.95;4.15;;;;;;;13.63;44.08;102810.47;5011920;28;20037;-61
2024/02/02 04:05:59;;;;;;;17.23;4.20;;;;;;;13.60;44.62;102799.91;5011868;28;20109;-61
2024/02/02 04:08:24;;;;;;;17.27;3.97;;;;;;;13.61;44.32;102809.72;5013159;28;20037;-61
2024/02/02 04:10:50;;;;;;;21.45;5.05;;;;;;;13.62;45.02;102819.53;5011769;28;20409;-62
2024/02/02 04:13:16;;;;;;;13.65;4.13;;;;;;;13.56;44.35;102803.78;5011708;28;20061;-61
2024/02/02 04:15:41;;;;;;;18.02;4.68;;;;;;;13.59;44.97;102808.97;4995207;28;20034;-61
2024/02/02 04:18:06;;;;;;;22.30;4.80;;;;;;;13.56;45.28;102819.94;4995023;28;20072;-61
2024/02/02 04:20:32;;;;;;;23.65;5.05;;;;;;;13.54;44.18;102811.94;5011743;28;20037;-61
2024/02/02 04:22:57;;;;;;;17.88;4.00;;;;;;;13.53;44.86;102796.78;5013036;28;20070;-61
2024/02/02 04:25:23;;;;;;;19.33;4.95;;;;;;;13.53;45.47;102796.78;5012830;28;20415;-62
2024/02/02 04:27:48;;;;;;;16.77;6.03;;;;;;;13.50;45.36;102788.03;4995023;28;20034;-61
2024/02/02 04:30:14;;;;;;;19.13;4.53;;;;;;;13.46;44.17;102786.47;4995290;28;20042;-61
2024/02/02 04:32:39;;;;;;;18.35;5.45;;;;;;;13.43;45.48;102788.41;4996720;28;20069;-61
2024/02/02 04:35:04;;;;;;;16.40;5.20;;;;;;;13.41;44.31;102795.72;5016683;28;20038;-61
2024/02/02 04:37:30;;;;;;;19.38;4.88;;;;;;;13.38;44.55;102787.84;4998763;28;20061;-61
2024/02/02 04:39:55;;;;;;;22.25;4.85;;;;;;;13.38;45.02;102790.53;5015395;28;20137;-61
2024/02/02 04:42:21;;;;;;;19.80;5.05;;;;;;;13.35;45.01;102782.66;5015094;28;20044;-62
2024/02/02 04:44:46;;;;;;;20.05;4.35;;;;;;;13.36;45.02;102792.47;5015138;28;20183;-61
2024/02/02 04:47:12;;;;;;;18.33;4.72;;;;;;;13.30;45.20;102776.72;5016377;28;20034;-61
2024/02/02 04:49:37;;;;;;;11.55;3.75;;;;;;;13.29;44.04;102777.66;5014804;28;20037;-61
2024/02/02 04:52:04;;;;;;;15.48;3.78;;;;;;;13.25;44.62;102776.16;4998547;28;20041;-61
2024/02/02 04:54:30;;;;;;;17.33;4.20;;;;;;;13.28;44.29;102788.56;5016356;28;20034;-61
2024/02/02 04:56:55;;;;;;;23.13;3.90;;;;;;;13.30;44.85;102792.00;5015985;28;20124;-62
2024/02/02 04:59:20;;;;;;;16.45;4.28;;;;;;;13.28;45.06;102789.44;5014953;28;20050;-61
2024/02/02 05:01:46;;;;;;;24.80;4.43;;;;;;;13.28;44.35;102783.16;5014878;28;20034;-60
2024/02/02 05:04:11;;;;;;;14.95;4.10;;;;;;;13.31;45.21;102794.63;4998552;28;20030;-61
2024/02/02 05:06:36;;;;;;;12.98;3.72;;;;;;;13.30;45.66;102792.88;5014913;28;20057;-60
2024/02/02 05:09:02;;;;;;;18.27;3.83;;;;;;;13.28;44.21;102784.03;5016178;28;20086;-61
2024/02/02 05:11:27;;;;;;;10.43;3.30;;;;;;;13.26;44.33;102791.31;5015860;28;20038;-61
2024/02/02 05:13:53;;;;;;;13.57;3.25;;;;;;;13.29;44.04;102796.50;5015079;28;20030;-61
2024/02/02 05:16:18;;;;;;;16.73;4.32;;;;;;;13.27;44.05;102802.97;5014545;28;20378;-61
2024/02/02 05:18:43;;;;;;;9.68;3.80;;;;;;;13.25;44.91;102805.75;5014386;28;20042;-61
2024/02/02 05:21:09;;;;;;;9.65;3.50;;;;;;;13.26;43.91;102803.94;4998190;28;20080;-61
2024/02/02 05:23:36;;;;;;;14.43;3.05;;;;;;;13.27;44.68;102806.53;5014322;28;20034;-61
2024/02/02 05:26:01;;;;;;;10.95;3.45;;;;;;;13.29;44.97;102801.91;5015678;28;20045;-61
2024/02/02 05:28:27;;;;;;;16.08;3.13;;;;;;;13.28;44.77;102805.56;5015763;28;20038;-61
2024/02/02 05:30:52;;;;;;;14.95;4.38;;;;;;;13.28;44.58;102810.97;4998479;28;20104;-61
2024/02/02 05:33:17;;;;;;;15.98;3.53;;;;;;;13.25;44.47;102808.47;4997778;28;20034;-61
2024/02/02 05:35:43;;;;;;;8.70;3.83;;;;;;;13.26;44.29;102791.31;4998020;28;20109;-61
2024/02/02 05:38:08;;;;;;;17.55;3.83;;;;;;;13.26;44.17;102790.50;5014344;28;20038;-61
2024/02/02 05:40:33;;;;;;;10.60;3.40;;;;;;;13.22;44.66;102772.78;4997776;28;20034;-61
2024/02/02 05:42:59;;;;;;;12.07;3.53;;;;;;;13.21;43.97;102776.44;5015283;28;20042;-61
2024/02/02 05:45:25;;;;;;;14.85;3.75;;;;;;;13.20;44.60;102770.22;5014047;28;20034;-61
2024/02/02 05:47:51;;;;;;;17.48;3.65;;;;;;;13.14;44.20;102761.66;5013794;28;20034;-61
2024/02/02 05:50:16;;;;;;;18.13;4.25;;;;;;;13.16;44.67;102771.38;5013887;28;20034;-61
2024/02/02 05:52:42;;;;;;;13.90;3.47;;;;;;;13.15;44.91;102766.94;5013705;28;20038;-61
2024/02/02 05:55:07;;;;;;;9.25;2.90;;;;;;;13.14;44.08;102765.22;5013839;28;20492;-61
2024/02/02 05:57:33;;;;;;;28.38;4.40;;;;;;;13.13;45.38;102763.47;5015016;28;20375;-60
2024/02/02 05:59:58;;;;;;;16.13;3.15;;;;;;;13.10;44.68;102766.38;5014719;28;20038;-61
2024/02/02 06:02:23;;;;;;;11.32;3.47;;;;;;;13.06;44.17;102762.13;5013736;28;20056;-60
2024/02/02 06:04:50;;;;;;;21.95;4.80;;;;;;;13.02;44.31;102755.19;5014889;28;20048;-61
2024/02/02 06:07:16;;;;;;;9.85;3.47;;;;;;;12.99;44.74;102749.13;5013471;28;20026;-61
2024/02/02 06:09:41;;;;;;;8.18;2.65;;;;;;;12.95;45.24;102737.75;4997322;28;20060;-61
2024/02/02 06:12:07;;;;;;;25.10;3.55;;;;;;;12.93;44.96;102730.69;5013900;28;20415;-60
2024/02/02 06:14:32;;;;;;;14.50;2.70;;;;;;;12.94;44.47;102736.00;4996506;28;20038;-61
2024/02/02 06:16:57;;;;;;;9.10;2.40;;;;;;;12.95;45.32;102721.59;4994348;28;20101;-61
2024/02/02 06:19:23;;;;;;;16.52;3.20;;;;;;;12.93;45.21;102722.63;5000518;28;20046;-61
2024/02/02 06:21:49;;;;;;;15.98;3.13;;;;;;;12.91;45.04;102722.75;5012653;28;20037;-61
2024/02/02 06:24:14;;;;;;;19.75;3.55;;;;;;;12.86;44.89;102722.19;5013169;28;20072;-61
2024/02/02 06:26:40;;;;;;;10.80;2.38;;;;;;;12.89;44.38;102721.97;5014431;28;20065;-61
2024/02/02 06:29:05;;;;;;;21.30;4.75;;;;;;;12.87;45.28;102726.56;5002178;28;20042;-61
2024/02/02 06:31:30;;;;;;;16.75;3.72;;;;;;;12.88;44.30;102719.38;4994889;28;20034;-62
2024/02/02 06:33:56;;;;;;;10.40;2.92;;;;;;;12.85;45.50;102733.88;4993477;28;20061;-61
2024/02/02 06:36:28;;;;;;;10.95;2.78;;;;;;;12.82;44.83;102720.63;4993481;28;20034;-61
2024/02/02 06:38:56;;;;;;;8.73;3.22;;;;;;;12.82;44.79;102720.63;4993476;28;20465;-61
2024/02/02 06:41:23;;;;;;;9.73;2.83;;;;;;;12.79;44.58;102715.44;4976962;28;20038;-61
2024/02/02 06:43:48;;;;;;;14.55;3.40;;;;;;;12.82;45.29;102716.13;5004744;28;20041;-61
2024/02/02 06:46:13;;;;;;;12.13;3.28;;;;;;;12.80;44.55;102709.97;5006525;28;20035;-61
2024/02/02 06:48:39;;;;;;;15.80;3.75;;;;;;;12.82;44.54;102726.00;4994459;28;20085;-61
2024/02/02 06:51:04;;;;;;;9.77;3.55;;;;;;;12.79;44.53;102716.31;4993583;28;20058;-61
2024/02/02 06:53:30;;;;;;;12.43;2.65;;;;;;;12.81;44.15;102718.91;4995852;28;20039;-61
2024/02/02 06:55:56;;;;;;;8.45;2.72;;;;;;;12.75;44.21;102703.16;5013805;28;20042;-61
2024/02/02 06:58:36;;;;;;;8.75;2.53;;;;;;;12.77;44.61;102718.25;5016689;28;20057;-60
2024/02/02 07:01:02;;;;;;;14.93;2.72;;;;;;;12.78;44.89;102721.81;5015065;28;20054;-61
2024/02/02 07:03:27;;;;;;;19.38;2.65;;;;;;;12.77;45.03;102722.75;4996167;28;20029;-61
2024/02/02 07:05:52;;;;;;;6.97;2.22;;;;;;;12.78;44.90;102737.94;5012487;28;20109;-60
2024/02/02 07:08:19;;;;;;;12.32;3.33;;;;;;;12.77;45.19;102746.94;5012579;28;20064;-62
2024/02/02 07:10:44;;;;;;;12.55;2.40;;;;;;;12.77;44.28;102746.94;4995970;28;20022;-62
2024/02/02 07:13:09;;;;;;;13.48;2.85;;;;;;;12.82;43.98;102759.16;5012405;28;20026;-61
2024/02/02 07:15:40;;;;;;;9.27;2.30;;;;;;;12.86;44.10;102754.44;5012324;28;20032;-62
2024/02/02 07:18:23;;;;;;;18.10;3.67;;;;;;;12.90;43.90;102755.13;5012285;28;20057;-62
2024/02/02 07:21:02;;;;;;;10.13;2.25;;;;;;;12.93;44.46;102745.00;5013738;28;20045;-62
2024/02/02 07:23:34;;;;;;;7.97;2.78;;;;;;;12.95;44.72;102756.56;4996546;28;20407;-62
2024/02/02 07:25:59;;;;;;;13.55;2.53;;;;;;;12.95;43.70;102755.69;4992069;28;20103;-62
2024/02/02 07:28:32;;;;;;;12.35;2.10;;;;;;;12.98;43.86;102752.81;5012159;28;20517;-61
2024/02/02 07:30:59;;;;;;;12.10;2.15;;;;;;;12.98;44.20;102748.28;5012189;28;20493;-62
2024/02/02 07:33:43;;;;;;;15.27;2.47;;;;;;;13.01;44.74;102758.84;5013752;28;20030;-62
2024/02/02 07:36:12;;;;;;;11.35;2.75;;;;;;;13.05;44.77;102757.69;5013448;28;20038;-62
2024/02/02 07:38:49;;;;;;;9.07;2.38;;;;;;;13.05;44.30;102754.13;4995644;28;20413;-62
2024/02/02 07:41:24;;;;;;;9.20;2.35;;;;;;;13.08;44.56;102754.84;5012042;28;20052;-62
2024/02/02 07:44:01;;;;;;;12.32;2.47;;;;;;;13.07;44.45;102755.78;5012060;28;20026;-61
2024/02/02 07:46:27;;;;;;;11.25;2.17;;;;;;;13.13;44.27;102760.78;5012045;28;20034;-62
2024/02/02 07:48:53;;;;;;;7.75;2.00;;;;;;;13.15;43.33;102744.56;4995740;28;20030;-62
2024/02/02 07:51:18;;;;;;;7.50;2.25;;;;;;;13.19;44.24;102755.03;5013386;28;20153;-62
2024/02/02 07:53:45;;;;;;;14.27;2.72;;;;;;;13.24;43.23;102755.59;5012175;28;20062;-62
2024/02/02 07:56:10;;;;;;;10.65;2.67;;;;;;;13.31;43.72;102754.25;5012151;28;20037;-62
2024/02/02 07:58:36;;;;;;;12.18;2.20;;;;;;;13.38;42.95;102747.47;5011736;28;20081;-62
2024/02/02 08:01:02;;;;;;;12.70;2.10;;;;;;;13.43;43.25;102749.84;5013131;28;20459;-62
2024/02/02 08:03:27;;;;;;;14.25;1.95;;;;;;;13.50;43.67;102744.94;4995509;28;20084;-61
2024/02/02 08:05:52;;;;;;;17.67;2.55;;;;;;;13.56;43.90;102733.78;5013110;28;20041;-61
2024/02/02 08:08:18;;;;;;;6.88;1.77;;;;;;;13.60;42.99;102732.59;5014244;28;20402;-62
2024/02/02 08:10:43;;;;;;;8.30;2.00;;;;;;;13.65;43.01;102734.00;5015695;28;20037;-62
2024/02/02 08:13:10;;;;;;;5.80;1.80;;;;;;;13.69;42.89;102745.44;5015762;28;20378;-62
2024/02/02 08:15:36;;;;;;;5.57;1.98;;;;;;;13.68;42.79;102746.44;5015616;28;20042;-62
2024/02/02 08:18:01;;;;;;;13.52;2.20;;;;;;;13.72;42.56;102750.63;4998673;28;20501;-62
2024/02/02 08:20:26;;;;;;;6.50;1.98;;;;;;;13.70;43.27;102731.91;5015595;28;20034;-62
2024/02/02 08:22:51;;;;;;;12.50;2.35;;;;;;;13.75;43.58;102739.66;5015277;28;20056;-62
2024/02/02 08:25:17;;;;;;;9.68;1.75;;;;;;;13.76;43.35;102734.16;5015391;28;20062;-62
2024/02/02 08:27:42;;;;;;;9.43;2.30;;;;;;;13.81;42.78;102733.88;5015376;28;20084;-62
2024/02/02 08:30:09;;;;;;;11.55;2.08;;;;;;;13.86;42.57;102720.94;5015186;28;20085;-62
2024/02/02 08:32:35;;;;;;;5.82;1.85;;;;;;;13.92;43.64;102728.63;5016583;28;20030;-62
2024/02/02 08:35:01;;;;;;;9.20;2.40;;;;;;;13.97;42.46;102729.16;5016266;28;20030;-62
2024/02/02 08:37:26;;;;;;;15.10;2.47;;;;;;;14.02;42.83;102733.25;5016331;28;20038;-62
2024/02/02 08:39:52;;;;;;;8.40;1.98;;;;;;;14.09;42.90;102722.94;5014986;28;20030;-62
2024/02/02 08:42:21;;;;;;;8.82;1.90;;;;;;;14.13;43.33;102723.56;4999109;28;20026;-61
2024/02/02 08:44:47;;;;;;;9.05;2.05;;;;;;;14.15;43.12;102725.22;5015282;28;20042;-62
2024/02/02 08:47:13;;;;;;;8.48;2.03;;;;;;;14.19;43.46;102724.03;5015236;28;20029;-62
2024/02/02 08:49:55;;;;;;;12.00;2.72;;;;;;;14.17;42.77;102703.53;5016220;28;20042;-61
2024/02/02 08:52:28;;;;;;;8.88;2.30;;;;;;;14.24;43.19;102729.94;5014879;28;20513;-62
2024/02/02 08:54:54;;;;;;;10.63;2.58;;;;;;;14.33;42.37;102732.03;5014963;28;20052;-61
2024/02/02 08:57:33;;;;;;;6.03;2.03;;;;;;;14.39;42.67;102731.63;5016056;28;20034;-62
2024/02/02 09:00:07;;;;;;;9.63;3.13;;;;;;;14.43;43.00;102716.94;5014825;28;20029;-62
2024/02/02 09:03:07;;;;;;;7.85;2.22;;;;;;;14.52;41.71;102716.31;5014870;28;20117;-62
2024/02/02 09:06:07;;;;;;;8.02;1.98;;;;;;;14.65;42.97;102723.53;5014635;28;20038;-62
2024/02/02 09:08:41;;;;;;;5.18;2.05;;;;;;;14.74;41.45;102709.41;5015292;28;20113;-62
2024/02/02 09:11:14;;;;;;;8.63;1.95;;;;;;;14.81;42.77;102714.25;5015890;28;20033;-62
2024/02/02 09:13:40;;;;;;;6.60;2.00;;;;;;;14.90;42.49;102715.41;5015851;28;20040;-62
2024/02/02 09:16:11;;;;;;;7.53;2.55;;;;;;;14.93;42.17;102709.78;5015545;28;20128;-62
2024/02/02 09:18:39;;;;;;;6.45;1.80;;;;;;;15.00;41.91;102714.63;4997590;28;20058;-62
2024/02/02 09:21:05;;;;;;;10.77;1.80;;;;;;;15.02;42.85;102714.50;5014466;28;20092;-62
2024/02/02 09:23:34;;;;;;;6.65;1.75;;;;;;;15.08;41.92;102714.06;5014299;28;20037;-62
2024/02/02 09:26:00;;;;;;;14.27;2.95;;;;;;;15.14;41.76;102713.63;5014218;28;20046;-62
2024/02/02 09:28:25;;;;;;;9.00;1.85;;;;;;;15.25;42.67;102718.22;4997966;28;20473;-62
2024/02/02 09:31:01;;;;;;;7.88;2.03;;;;;;;15.30;41.72;102719.59;5015780;28;20034;-62
2024/02/02 09:33:32;;;;;;;6.43;1.83;;;;;;;15.44;41.66;102727.53;4998073;28;20385;-62
2024/02/02 09:35:59;;;;;;;11.50;3.08;;;;;;;15.56;41.86;102737.47;5014131;28;20115;-62
2024/02/02 09:38:25;;;;;;;14.35;1.92;;;;;;;15.60;41.53;102728.19;5014261;28;20382;-62
2024/02/02 09:41:05;;;;;;;4.88;1.80;;;;;;;15.83;42.09;102736.38;4997806;28;20041;-62
2024/02/02 09:43:40;;;;;;;9.77;2.20;;;;;;;15.98;42.35;102733.38;5013964;28;20038;-62
2024/02/02 09:46:23;;;;;;;8.13;2.20;;;;;;;16.12;41.86;102735.00;5013823;28;20425;-62
2024/02/02 09:48:59;;;;;;;12.65;1.70;;;;;;;16.21;41.47;102728.91;5013835;28;20034;-62
2024/02/02 09:51:50;;;;;;;7.40;2.40;;;;;;;16.33;41.68;102732.50;5013806;28;20034;-62
2024/02/02 09:54:32;;;;;;;18.75;2.08;;;;;;;16.39;41.33;102732.03;5013917;28;20061;-62
2024/02/02 09:57:04;;;;;;;9.05;2.10;;;;;;;16.51;41.05;102737.31;4997668;28;20077;-62
2024/02/02 09:59:50;;;;;;;7.10;1.90;;;;;;;16.65;41.23;102739.81;5015032;28;20061;-62
2024/02/02 10:02:15;;;;;;;7.65;2.15;;;;;;;16.85;40.68;102730.13;4977479;28;20541;-62
2024/02/02 10:05:17;;;;;;;8.55;1.95;;;;;;;16.99;40.94;102729.88;4993704;28;20027;-63
2024/02/02 10:08:37;;;;;;;15.60;2.25;;;;;;;17.07;40.88;102734.66;4977859;28;20061;-62
2024/02/02 10:11:18;;;;;;;11.50;2.38;;;;;;;17.17;40.37;102725.66;4938264;29;20066;-62
2024/02/02 10:14:02;;;;;;;9.95;4.60;;;;;;;17.46;40.09;102723.25;4971656;28;20038;-62
2024/02/02 10:16:31;;;;;;;16.83;2.45;;;;;;;17.63;41.11;102717.31;4993505;28;20092;-63
2024/02/02 10:19:05;;;;;;;14.68;3.10;;;;;;;17.78;40.23;102721.44;4993633;28;20046;-62
2024/02/02 10:21:51;;;;;;;7.10;2.38;;;;;;;17.80;40.38;102738.44;4994906;28;20038;-62
2024/02/02 10:24:35;;;;;;;6.47;2.45;;;;;;;17.79;40.53;102728.59;4994610;28;20057;-62
2024/02/02 10:27:19;;;;;;;9.52;2.35;;;;;;;17.84;40.49;102729.06;4994938;28;20038;-62
2024/02/02 10:30:05;;;;;;;7.95;2.42;;;;;;;17.70;40.38;102734.78;4994107;28;20105;-62
2024/02/02 10:32:30;;;;;;;7.88;3.28;;;;;;;17.80;40.73;102727.59;4993575;28;20045;-62
2024/02/02 10:34:56;;;;;;;6.97;2.30;;;;;;;17.82;40.54;102722.03;4995057;28;20034;-62
2024/02/02 10:37:37;;;;;;;16.65;2.88;;;;;;;17.76;41.22;102728.84;4995251;28;20502;-62
2024/02/02 10:40:10;;;;;;;12.30;3.40;;;;;;;17.72;40.31;102721.97;4977960;28;20026;-63
2024/02/02 10:42:50;;;;;;;9.43;2.70;;;;;;;17.71;40.34;102714.81;4994956;28;20038;-62
2024/02/02 10:45:42;;;;;;;13.45;2.60;;;;;;;17.66;40.44;102719.78;4993472;28;20034;-62
2024/02/02 10:48:31;;;;;;;11.35;2.78;;;;;;;17.48;41.07;102732.09;4993243;28;20029;-62
2024/02/02 10:51:05;;;;;;;8.68;2.97;;;;;;;17.32;40.82;102723.53;4973668;28;20034;-62
2024/02/02 10:53:44;;;;;;;15.52;3.58;;;;;;;17.26;40.76;102716.78;4973761;28;20129;-62
2024/02/02 10:56:15;;;;;;;8.18;3.22;;;;;;;17.31;40.84;102710.97;4973958;28;20218;-62
2024/02/02 10:59:08;;;;;;;7.65;2.75;;;;;;;17.48;41.21;102707.72;4973404;28;20039;-62
2024/02/02 11:01:52;;;;;;;12.27;2.70;;;;;;;17.58;40.27;102697.88;4974700;28;20039;-62
2024/02/02 11:04:30;;;;;;;10.25;2.78;;;;;;;17.61;40.74;102700.34;4957476;28;20038;-62
2024/02/02 11:07:05;;;;;;;11.80;2.90;;;;;;;17.53;41.05;102705.50;4973566;28;20077;-62
2024/02/02 11:09:36;;;;;;;8.70;2.63;;;;;;;17.43;41.87;102709.97;4974629;28;20039;-62
2024/02/02 11:12:10;;;;;;;13.23;3.30;;;;;;;17.41;41.63;102693.84;4974637;28;20043;-63
2024/02/02 11:14:41;;;;;;;8.85;2.33;;;;;;;17.46;41.18;102705.16;4974755;28;20035;-62
2024/02/02 11:17:17;;;;;;;14.57;3.67;;;;;;;17.41;41.10;102699.25;4973294;28;20047;-62
2024/02/02 11:20:05;;;;;;;8.75;2.90;;;;;;;17.28;41.57;102684.16;4974098;28;20070;-63
2024/02/02 11:22:37;;;;;;;9.20;2.67;;;;;;;17.30;41.34;102690.28;4974517;28;20034;-62
2024/02/02 11:25:15;;;;;;;14.02;2.90;;;;;;;17.20;40.94;102692.03;4974710;28;20031;-62